createdAt,value
2023-04-16T00:00:30.411Z,69.7650
2023-04-16T00:01:32.042Z,69.8161
2023-04-16T00:02:33.854Z,69.8459
2023-04-16T00:03:35.551Z,70.0454
2023-04-16T00:04:37.023Z,70.0661
2023-04-16T00:05:38.664Z,70.0337
2023-04-16T00:06:40.293Z,70.0636
2023-04-16T00:07:41.900Z,70.0397
2023-04-16T00:08:43.670Z,70.0460
2023-04-16T00:09:45.203Z,70.0651
2023-04-16T00:10:46.987Z,70.2534
2023-04-16T00:11:48.583Z,70.2087
2023-04-16T00:12:50.255Z,70.1537
2023-04-16T00:13:51.865Z,70.0548
2023-04-16T00:14:53.500Z,70.0794
2023-04-16T00:15:55.229Z,70.0783
2023-04-16T00:16:56.901Z,70.1041
2023-04-16T00:17:58.558Z,70.1100
2023-04-16T00:19:00.184Z,70.2155
2023-04-16T00:20:01.861Z,70.2428
2023-04-16T00:21:03.446Z,70.2884
2023-04-16T00:22:05.102Z,70.3213
2023-04-16T00:23:06.690Z,70.2728
2023-04-16T00:24:08.340Z,70.2595
2023-04-16T00:25:09.983Z,70.2950
2023-04-16T00:26:11.693Z,70.2483
2023-04-16T00:27:13.282Z,70.2203
2023-04-16T00:28:14.927Z,70.1956
2023-04-16T00:29:16.582Z,70.2018
2023-04-16T00:30:18.236Z,70.2221
2023-04-16T00:31:19.977Z,70.2378
2023-04-16T00:32:21.547Z,70.3057
2023-04-16T00:33:23.151Z,70.2633
2023-04-16T00:34:24.803Z,70.2675
2023-04-16T00:35:26.443Z,70.3052
2023-04-16T00:36:28.161Z,70.2514
2023-04-16T00:37:29.740Z,70.2704
2023-04-16T00:38:31.466Z,70.2699
2023-04-16T00:39:33.060Z,70.3243
2023-04-16T00:40:34.743Z,70.2837
2023-04-16T00:41:36.417Z,70.3302
2023-04-16T00:42:38.014Z,70.4749
2023-04-16T00:43:39.662Z,70.4570
2023-04-16T00:44:41.327Z,70.4174
2023-04-16T00:45:42.963Z,70.4406
2023-04-16T00:46:44.753Z,70.4735
2023-04-16T00:47:46.310Z,70.6039
2023-04-16T00:48:47.900Z,70.6714
2023-04-16T00:49:49.545Z,70.6764
2023-04-16T00:50:51.199Z,70.7255
2023-04-16T00:51:52.863Z,70.7480
2023-04-16T00:52:54.476Z,70.8089
2023-04-16T00:53:56.149Z,70.7690
2023-04-16T00:54:57.766Z,70.7295
2023-04-16T00:55:59.459Z,70.7342
2023-04-16T00:57:01.083Z,70.7835
2023-04-16T00:58:02.749Z,70.8093
2023-04-16T00:59:04.443Z,70.8244
2023-04-16T01:00:06.111Z,70.8040
2023-04-16T01:01:07.845Z,70.8034
2023-04-16T01:02:09.441Z,70.8703
2023-04-16T01:03:11.116Z,70.7939
2023-04-16T01:04:12.753Z,70.7792
2023-04-16T01:05:14.287Z,70.7422
2023-04-16T01:06:15.918Z,70.8022
2023-04-16T01:07:17.565Z,70.8579
2023-04-16T01:08:19.219Z,70.7789
2023-04-16T01:09:20.845Z,70.7896
2023-04-16T01:10:22.487Z,70.7581
2023-04-16T01:11:24.165Z,70.7252
2023-04-16T01:12:25.773Z,70.7991
2023-04-16T01:13:27.411Z,70.7674
2023-04-16T01:14:29.043Z,70.7624
2023-04-16T01:15:30.727Z,70.8099
2023-04-16T01:16:32.408Z,71.0039
2023-04-16T01:17:34.058Z,71.2166
2023-04-16T01:18:35.688Z,71.1682
2023-04-16T01:19:37.285Z,71.1810
2023-04-16T01:20:38.964Z,71.1406
2023-04-16T01:21:40.607Z,71.1102
2023-04-16T01:22:42.244Z,71.0662
2023-04-16T01:23:43.904Z,70.9768
2023-04-16T01:24:45.534Z,70.9983
2023-04-16T01:25:47.208Z,70.9470
2023-04-16T01:26:48.848Z,70.9360
2023-04-16T01:27:50.474Z,70.8758
2023-04-16T01:28:52.126Z,70.8714
2023-04-16T01:29:53.768Z,70.8716
2023-04-16T01:30:55.536Z,70.9149
2023-04-16T01:31:57.061Z,70.8738
2023-04-16T01:32:58.719Z,70.8817
2023-04-16T01:34:00.331Z,70.9385
2023-04-16T01:35:02.166Z,70.9645
2023-04-16T01:36:03.636Z,70.9198
2023-04-16T01:37:05.305Z,70.9719
2023-04-16T01:38:06.905Z,70.9591
2023-04-16T01:39:08.737Z,70.9760
2023-04-16T01:40:10.189Z,71.0026
2023-04-16T01:41:11.848Z,71.0117
2023-04-16T01:42:13.543Z,70.9108
2023-04-16T01:43:15.162Z,70.9149
2023-04-16T01:44:16.766Z,70.8283
2023-04-16T01:45:18.464Z,70.8724
2023-04-16T01:46:20.145Z,70.8946
2023-04-16T01:47:21.788Z,70.9175
2023-04-16T01:48:23.366Z,70.9611
2023-04-16T01:49:24.992Z,70.9703
2023-04-16T01:50:26.677Z,70.8358
2023-04-16T01:51:28.281Z,70.8792
2023-04-16T01:52:29.986Z,70.8732
2023-04-16T01:53:31.649Z,70.9147
2023-04-16T01:54:33.324Z,70.8698
2023-04-16T01:55:34.914Z,70.8980
2023-04-16T01:56:36.566Z,70.8968
2023-04-16T01:57:38.287Z,70.9707
2023-04-16T01:58:39.865Z,71.0783
2023-04-16T01:59:41.486Z,71.0627
2023-04-16T02:00:43.264Z,71.0019
2023-04-16T02:01:44.820Z,71.0644
2023-04-16T02:02:46.702Z,71.0977
2023-04-16T02:03:48.236Z,71.0272
2023-04-16T02:04:49.801Z,71.0237
2023-04-16T02:05:51.383Z,70.9556
2023-04-16T02:06:53.075Z,70.9046
2023-04-16T02:07:54.692Z,70.8412
2023-04-16T02:08:56.306Z,70.8617
2023-04-16T02:09:57.941Z,70.8250
2023-04-16T02:10:59.572Z,70.8070
2023-04-16T02:12:01.225Z,70.8618
2023-04-16T02:13:02.909Z,70.9963
2023-04-16T02:14:04.536Z,70.9543
2023-04-16T02:15:06.181Z,70.9294
2023-04-16T02:16:07.829Z,70.9203
2023-04-16T02:17:09.443Z,70.9158
2023-04-16T02:18:11.157Z,70.9144
2023-04-16T02:19:12.810Z,70.9281
2023-04-16T02:20:14.429Z,70.9731
2023-04-16T02:21:16.041Z,71.0379
2023-04-16T02:22:17.692Z,71.0488
2023-04-16T02:23:19.405Z,71.0977
2023-04-16T02:24:20.980Z,70.9981
2023-04-16T02:25:22.623Z,71.0200
2023-04-16T02:26:24.329Z,70.9992
2023-04-16T02:27:25.920Z,70.9749
2023-04-16T02:28:27.599Z,71.0192
2023-04-16T02:29:29.184Z,70.9788
2023-04-16T02:30:30.849Z,70.9947
2023-04-16T02:31:32.514Z,70.9623
2023-04-16T02:32:34.186Z,70.9824
2023-04-16T02:33:35.833Z,70.9779
2023-04-16T02:34:37.461Z,71.0577
2023-04-16T02:35:39.131Z,71.1453
2023-04-16T02:36:40.728Z,71.2771
2023-04-16T02:37:42.372Z,71.2762
2023-04-16T02:38:44.131Z,71.2990
2023-04-16T02:39:45.708Z,71.2387
2023-04-16T02:40:47.345Z,71.2670
2023-04-16T02:41:48.963Z,71.2909
2023-04-16T02:42:50.630Z,71.2896
2023-04-16T02:43:52.301Z,71.2803
2023-04-16T02:44:53.918Z,71.2547
2023-04-16T02:45:55.538Z,71.1761
2023-04-16T02:46:57.122Z,71.2305
2023-04-16T02:47:58.820Z,71.3350
2023-04-16T02:49:00.464Z,71.3784
2023-04-16T02:50:02.049Z,71.3926
2023-04-16T02:51:03.714Z,71.3553
2023-04-16T02:52:05.393Z,71.3273
2023-04-16T02:53:07.022Z,71.2646
2023-04-16T02:54:08.695Z,71.3030
2023-04-16T02:55:10.324Z,71.2808
2023-04-16T02:56:11.955Z,71.3166
2023-04-16T02:57:13.631Z,71.2301
2023-04-16T02:58:15.230Z,71.2639
2023-04-16T02:59:16.913Z,71.2274
2023-04-16T03:00:18.547Z,71.2961
2023-04-16T03:01:20.214Z,71.2590
2023-04-16T03:02:22.272Z,71.2456
2023-04-16T03:03:23.526Z,71.2579
2023-04-16T03:04:25.169Z,71.2735
2023-04-16T03:05:26.790Z,71.2642
2023-04-16T03:06:28.429Z,71.2275
2023-04-16T03:07:30.133Z,71.2404
2023-04-16T03:08:31.690Z,71.3593
2023-04-16T03:09:33.390Z,71.4891
2023-04-16T03:10:35.029Z,71.4631
2023-04-16T03:11:36.671Z,71.4570
2023-04-16T03:12:38.313Z,71.5561
2023-04-16T03:13:39.977Z,71.4818
2023-04-16T03:14:41.670Z,71.4240
2023-04-16T03:15:43.280Z,71.3983
2023-04-16T03:16:44.962Z,71.3429
2023-04-16T03:17:46.591Z,71.3650
2023-04-16T03:18:48.175Z,71.4140
2023-04-16T03:19:49.874Z,71.4269
2023-04-16T03:20:51.468Z,71.4725
2023-04-16T03:21:53.140Z,71.4243
2023-04-16T03:22:54.799Z,71.4685
2023-04-16T03:23:56.438Z,71.5031
2023-04-16T03:24:58.115Z,71.5664
2023-04-16T03:25:59.733Z,71.6719
2023-04-16T03:27:01.381Z,71.6609
2023-04-16T03:28:03.013Z,71.6706
2023-04-16T03:29:04.672Z,71.6679
2023-04-16T03:30:06.338Z,71.6689
2023-04-16T03:31:07.965Z,71.6881
2023-04-16T03:32:09.638Z,71.6189
2023-04-16T03:33:11.417Z,71.6558
2023-04-16T03:34:12.929Z,71.6723
2023-04-16T03:35:14.604Z,71.6648
2023-04-16T03:36:16.280Z,71.7873
2023-04-16T03:37:17.918Z,71.8460
2023-04-16T03:38:19.567Z,71.8856
2023-04-16T03:39:21.282Z,71.8460
2023-04-16T03:40:22.962Z,71.7865
2023-04-16T03:41:24.540Z,71.7510
2023-04-16T03:42:26.231Z,71.7154
2023-04-16T03:43:27.866Z,71.7467
2023-04-16T03:44:29.481Z,71.8036
2023-04-16T03:45:31.233Z,71.7750
2023-04-16T03:46:32.852Z,71.7719
2023-04-16T03:47:34.463Z,71.8208
2023-04-16T03:48:36.172Z,71.8269
2023-04-16T03:49:37.732Z,71.7822
2023-04-16T03:50:39.496Z,71.8305
2023-04-16T03:51:41.052Z,71.8749
2023-04-16T03:52:42.684Z,71.8581
2023-04-16T03:53:44.322Z,71.8917
2023-04-16T03:54:46.021Z,71.8740
2023-04-16T03:55:47.683Z,71.8324
2023-04-16T03:56:49.275Z,71.8293
2023-04-16T03:57:50.933Z,71.8358
2023-04-16T03:58:52.576Z,71.9574
2023-04-16T03:59:54.215Z,71.9787
2023-04-16T04:00:55.918Z,71.9917
2023-04-16T04:01:57.712Z,71.9498
2023-04-16T04:02:59.305Z,71.9535
2023-04-16T04:04:00.971Z,71.9980
2023-04-16T04:05:02.631Z,72.0597
2023-04-16T04:06:04.150Z,72.0656
2023-04-16T04:07:05.780Z,72.1298
2023-04-16T04:08:07.416Z,72.0515
2023-04-16T04:09:09.281Z,72.0555
2023-04-16T04:10:10.718Z,72.0258
2023-04-16T04:11:12.443Z,72.0894
2023-04-16T04:12:14.018Z,72.0441
2023-04-16T04:13:15.655Z,72.0965
2023-04-16T04:14:17.297Z,72.1159
2023-04-16T04:15:18.935Z,72.1195
2023-04-16T04:16:20.665Z,72.1147
2023-04-16T04:17:22.340Z,72.1044
2023-04-16T04:18:23.855Z,72.1003
2023-04-16T04:19:25.542Z,72.0380
2023-04-16T04:20:27.188Z,71.9506
2023-04-16T04:21:28.887Z,71.9816
2023-04-16T04:22:30.478Z,72.0981
2023-04-16T04:23:32.144Z,72.2213
2023-04-16T04:24:33.811Z,72.1559
2023-04-16T04:25:35.432Z,72.1880
2023-04-16T04:26:37.226Z,72.1661
2023-04-16T04:27:38.738Z,72.1713
2023-04-16T04:28:40.310Z,72.1518
2023-04-16T04:29:41.941Z,72.2295
2023-04-16T04:30:43.625Z,72.2826
2023-04-16T04:31:45.358Z,72.2900
2023-04-16T04:32:46.940Z,72.2108
2023-04-16T04:33:48.565Z,72.3101
2023-04-16T04:34:50.386Z,72.3075
2023-04-16T04:35:51.828Z,72.2207
2023-04-16T04:36:53.521Z,72.2557
2023-04-16T04:37:55.142Z,72.2658
2023-04-16T04:38:56.808Z,72.2762
2023-04-16T04:39:58.425Z,72.3166
2023-04-16T04:41:00.148Z,72.2957
2023-04-16T04:42:01.820Z,72.3049
2023-04-16T04:43:03.397Z,72.2901
2023-04-16T04:44:05.024Z,72.1920
2023-04-16T04:45:06.687Z,72.2595
2023-04-16T04:46:08.417Z,72.2778
2023-04-16T04:47:10.000Z,72.3085
2023-04-16T04:48:11.601Z,72.2902
2023-04-16T04:49:13.262Z,72.2246
2023-04-16T04:50:14.893Z,72.2116
2023-04-16T04:51:16.545Z,72.1073
2023-04-16T04:52:18.209Z,72.1260
2023-04-16T04:53:19.827Z,72.0980
2023-04-16T04:54:21.464Z,72.0293
2023-04-16T04:55:23.121Z,72.1216
2023-04-16T04:56:24.762Z,72.1571
2023-04-16T04:57:26.442Z,72.1491
2023-04-16T04:58:28.061Z,72.1953
2023-04-16T04:59:29.721Z,72.2394
2023-04-16T05:00:31.366Z,72.2070
2023-04-16T05:01:33.190Z,72.2243
2023-04-16T05:02:34.895Z,72.2313
2023-04-16T05:03:37.207Z,72.2606
2023-04-16T05:04:38.118Z,72.3023
2023-04-16T05:05:39.738Z,72.2557
2023-04-16T05:06:41.430Z,72.1821
2023-04-16T05:07:43.064Z,72.1720
2023-04-16T05:08:44.677Z,72.1581
2023-04-16T05:09:46.332Z,72.1839
2023-04-16T05:10:47.953Z,72.1925
2023-04-16T05:11:49.596Z,72.1539
2023-04-16T05:12:51.302Z,72.0928
2023-04-16T05:13:52.975Z,72.0955
2023-04-16T05:14:54.592Z,72.0730
2023-04-16T05:15:56.212Z,72.1151
2023-04-16T05:16:57.941Z,72.2104
2023-04-16T05:17:59.602Z,72.1735
2023-04-16T05:19:01.195Z,72.1035
2023-04-16T05:20:02.789Z,72.1236
2023-04-16T05:21:04.444Z,72.1445
2023-04-16T05:22:06.072Z,72.1560
2023-04-16T05:23:07.765Z,72.1691
2023-04-16T05:24:09.328Z,72.1383
2023-04-16T05:25:10.969Z,72.1269
2023-04-16T05:26:12.604Z,72.1125
2023-04-16T05:27:14.243Z,72.1015
2023-04-16T05:28:15.899Z,72.1375
2023-04-16T05:29:17.539Z,72.1922
2023-04-16T05:30:19.176Z,72.1836
2023-04-16T05:31:20.971Z,72.1672
2023-04-16T05:32:22.504Z,72.1728
2023-04-16T05:33:24.144Z,72.1748
2023-04-16T05:34:25.772Z,72.1112
2023-04-16T05:35:27.412Z,72.0930
2023-04-16T05:36:29.131Z,72.1032
2023-04-16T05:37:30.773Z,72.1164
2023-04-16T05:38:32.497Z,72.1901
2023-04-16T05:39:34.056Z,72.2571
2023-04-16T05:40:35.634Z,72.2723
2023-04-16T05:41:37.283Z,72.2596
2023-04-16T05:42:38.911Z,72.2310
2023-04-16T05:43:40.621Z,72.2481
2023-04-16T05:44:42.240Z,72.2168
2023-04-16T05:45:43.876Z,72.1814
2023-04-16T05:46:45.520Z,72.2060
2023-04-16T05:47:47.230Z,72.1899
2023-04-16T05:48:48.831Z,72.1209
2023-04-16T05:49:50.426Z,72.0926
2023-04-16T05:50:52.089Z,72.1291
2023-04-16T05:51:53.747Z,72.1580
2023-04-16T05:52:55.388Z,72.1729
2023-04-16T05:53:57.069Z,72.1813
2023-04-16T05:54:58.690Z,72.1807
2023-04-16T05:56:00.372Z,72.2200
2023-04-16T05:57:02.036Z,72.2540
2023-04-16T05:58:03.648Z,72.3115
2023-04-16T05:59:05.310Z,72.3219
2023-04-16T06:00:07.017Z,72.3395
2023-04-16T06:01:08.615Z,72.3308
2023-04-16T06:02:10.243Z,72.3605
2023-04-16T06:03:12.041Z,72.3050
2023-04-16T06:04:13.891Z,72.3804
2023-04-16T06:05:15.281Z,72.4217
2023-04-16T06:06:16.830Z,72.4733
2023-04-16T06:07:18.458Z,72.4412
2023-04-16T06:08:20.114Z,72.4853
2023-04-16T06:09:21.827Z,72.4870
2023-04-16T06:10:23.387Z,72.5211
2023-04-16T06:11:24.996Z,72.5144
2023-04-16T06:12:26.656Z,72.4669
2023-04-16T06:13:28.300Z,72.4364
2023-04-16T06:14:29.961Z,72.4351
2023-04-16T06:15:31.590Z,72.4620
2023-04-16T06:16:33.364Z,72.5149
2023-04-16T06:17:34.937Z,72.5310
2023-04-16T06:18:36.501Z,72.5164
2023-04-16T06:19:38.177Z,72.5256
2023-04-16T06:20:39.818Z,72.5923
2023-04-16T06:21:41.458Z,72.5293
2023-04-16T06:22:43.097Z,72.5573
2023-04-16T06:23:44.770Z,72.5725
2023-04-16T06:24:46.456Z,72.6414
2023-04-16T06:25:48.038Z,72.6408
2023-04-16T06:26:49.701Z,72.6830
2023-04-16T06:27:51.374Z,72.7801
2023-04-16T06:28:52.993Z,72.8159
2023-04-16T06:29:54.688Z,72.8241
2023-04-16T06:30:56.278Z,72.7639
2023-04-16T06:31:57.894Z,72.7605
2023-04-16T06:32:59.578Z,72.7660
2023-04-16T06:34:01.257Z,72.8250
2023-04-16T06:35:03.017Z,72.8626
2023-04-16T06:36:04.524Z,72.8400
2023-04-16T06:37:07.184Z,72.8324
2023-04-16T06:38:07.825Z,72.8438
2023-04-16T06:39:09.804Z,72.8599
2023-04-16T06:40:11.129Z,72.8802
2023-04-16T06:41:12.734Z,72.8557
2023-04-16T06:42:14.403Z,72.8311
2023-04-16T06:43:16.021Z,72.8287
2023-04-16T06:44:17.691Z,72.8320
2023-04-16T06:45:19.350Z,72.8031
2023-04-16T06:46:20.999Z,72.8272
2023-04-16T06:47:22.725Z,72.8324
2023-04-16T06:48:24.340Z,72.8901
2023-04-16T06:49:25.948Z,72.8210
2023-04-16T06:50:27.648Z,72.8101
2023-04-16T06:51:29.242Z,72.7663
2023-04-16T06:52:30.899Z,72.8172
2023-04-16T06:53:32.523Z,72.8762
2023-04-16T06:54:34.162Z,72.9282
2023-04-16T06:55:35.849Z,72.8863
2023-04-16T06:56:37.435Z,72.8990
2023-04-16T06:57:39.074Z,72.8872
2023-04-16T06:58:40.735Z,72.9375
2023-04-16T06:59:42.425Z,72.9395
2023-04-16T07:00:44.141Z,72.9799
2023-04-16T07:01:45.723Z,73.0131
2023-04-16T07:02:47.512Z,72.9678
2023-04-16T07:03:49.206Z,73.0251
2023-04-16T07:04:50.599Z,73.0263
2023-04-16T07:05:52.280Z,73.0894
2023-04-16T07:06:53.885Z,73.0843
2023-04-16T07:07:55.513Z,73.2048
2023-04-16T07:08:57.185Z,73.2463
2023-04-16T07:09:58.814Z,73.2347
2023-04-16T07:11:00.486Z,73.2879
2023-04-16T07:12:02.090Z,73.2990
2023-04-16T07:13:03.750Z,73.3271
2023-04-16T07:14:05.394Z,73.3177
2023-04-16T07:15:07.025Z,73.3542
2023-04-16T07:16:08.793Z,73.3000
2023-04-16T07:17:10.364Z,73.2388
2023-04-16T07:18:12.005Z,73.1723
2023-04-16T07:19:13.608Z,73.2062
2023-04-16T07:20:15.272Z,73.1306
2023-04-16T07:21:16.951Z,73.0648
2023-04-16T07:22:18.581Z,72.9966
2023-04-16T07:23:20.201Z,73.0119
2023-04-16T07:24:21.860Z,72.9668
2023-04-16T07:25:23.548Z,72.9603
2023-04-16T07:26:25.173Z,72.9542
2023-04-16T07:27:26.787Z,72.9514
2023-04-16T07:28:28.514Z,72.9940
2023-04-16T07:29:30.108Z,72.9277
2023-04-16T07:30:31.710Z,72.8832
2023-04-16T07:31:33.348Z,72.8822
2023-04-16T07:32:35.038Z,72.9369
2023-04-16T07:33:36.566Z,72.9110
2023-04-16T07:34:38.317Z,72.9038
2023-04-16T07:35:39.862Z,73.0004
2023-04-16T07:36:41.549Z,72.9586
2023-04-16T07:37:43.150Z,72.9234
2023-04-16T07:38:44.829Z,72.8773
2023-04-16T07:39:46.465Z,72.8823
2023-04-16T07:40:48.094Z,72.9020
2023-04-16T07:41:49.803Z,72.9064
2023-04-16T07:42:51.391Z,72.9293
2023-04-16T07:43:53.038Z,72.9616
2023-04-16T07:44:54.695Z,72.8795
2023-04-16T07:45:56.468Z,72.9449
2023-04-16T07:46:58.111Z,72.8991
2023-04-16T07:47:59.880Z,72.8546
2023-04-16T07:49:01.296Z,72.9617
2023-04-16T07:50:02.908Z,72.9962
2023-04-16T07:51:04.593Z,72.9641
2023-04-16T07:52:06.231Z,72.9477
2023-04-16T07:53:07.930Z,72.9119
2023-04-16T07:54:09.502Z,72.8792
2023-04-16T07:55:11.156Z,72.8880
2023-04-16T07:56:12.798Z,72.9362
2023-04-16T07:57:14.463Z,72.9185
2023-04-16T07:58:16.106Z,72.8445
2023-04-16T07:59:23.352Z,72.9094
2023-04-16T08:00:19.384Z,72.8280
2023-04-16T08:01:21.009Z,72.8069
2023-04-16T08:02:22.828Z,72.8268
2023-04-16T08:03:24.636Z,72.8390
2023-04-16T08:04:26.536Z,72.8460
2023-04-16T08:05:27.599Z,72.8949
2023-04-16T08:06:29.222Z,72.8792
2023-04-16T08:07:31.920Z,72.8921
2023-04-16T08:08:32.514Z,72.9269
2023-04-16T08:09:34.178Z,72.8671
2023-04-16T08:10:35.821Z,72.8398
2023-04-16T08:11:37.465Z,72.8460
2023-04-16T08:12:39.131Z,72.8321
2023-04-16T08:13:40.744Z,72.8800
2023-04-16T08:14:42.382Z,72.9423
2023-04-16T08:15:44.062Z,72.9187
2023-04-16T08:16:45.735Z,72.9250
2023-04-16T08:17:47.403Z,72.9112
2023-04-16T08:18:49.172Z,72.9282
2023-04-16T08:19:50.645Z,72.9915
2023-04-16T08:20:52.281Z,72.9443
2023-04-16T08:21:53.900Z,72.9045
2023-04-16T08:22:55.608Z,72.9501
2023-04-16T08:23:57.269Z,72.9350
2023-04-16T08:24:58.864Z,72.9417
2023-04-16T08:26:00.463Z,72.9751
2023-04-16T08:27:11.448Z,72.9953
2023-04-16T08:28:03.816Z,72.9963
2023-04-16T08:29:05.414Z,72.9909
2023-04-16T08:30:07.680Z,72.9498
2023-04-16T08:31:08.783Z,72.9724
2023-04-16T08:32:10.418Z,73.0119
2023-04-16T08:33:12.124Z,73.0658
2023-04-16T08:34:13.681Z,73.0893
2023-04-16T08:35:15.321Z,73.1662
2023-04-16T08:36:16.957Z,73.1948
2023-04-16T08:37:18.608Z,73.2038
2023-04-16T08:38:20.282Z,73.2009
2023-04-16T08:39:21.923Z,73.2389
2023-04-16T08:40:23.520Z,73.3251
2023-04-16T08:41:25.171Z,73.3288
2023-04-16T08:42:26.878Z,73.2828
2023-04-16T08:43:28.481Z,73.2921
2023-04-16T08:44:30.101Z,73.2267
2023-04-16T08:45:31.743Z,73.2497
2023-04-16T08:46:33.423Z,73.2590
2023-04-16T08:47:35.057Z,73.2748
2023-04-16T08:48:36.707Z,73.2626
2023-04-16T08:49:38.308Z,73.3235
2023-04-16T08:50:39.954Z,73.5081
2023-04-16T08:51:41.605Z,73.5954
2023-04-16T08:52:43.256Z,73.6596
2023-04-16T08:53:44.927Z,73.5934
2023-04-16T08:54:46.527Z,73.4880
2023-04-16T08:55:48.192Z,73.4195
2023-04-16T08:56:49.822Z,73.3896
2023-04-16T08:57:51.464Z,73.4064
2023-04-16T08:58:53.154Z,73.4167
2023-04-16T08:59:54.762Z,73.2913
2023-04-16T09:00:56.405Z,73.1766
2023-04-16T09:01:58.249Z,73.1315
2023-04-16T09:02:59.777Z,73.0838
2023-04-16T09:04:01.685Z,73.0036
2023-04-16T09:05:03.127Z,73.0241
2023-04-16T09:06:04.686Z,73.0461
2023-04-16T09:07:06.347Z,73.0861
2023-04-16T09:08:08.006Z,73.0959
2023-04-16T09:09:10.095Z,73.1217
2023-04-16T09:10:11.298Z,73.1425
2023-04-16T09:11:12.952Z,73.1738
2023-04-16T09:12:14.553Z,73.2152
2023-04-16T09:13:16.195Z,73.2682
2023-04-16T09:14:17.878Z,73.2817
2023-04-16T09:15:19.461Z,73.3255
2023-04-16T09:16:21.099Z,73.2687
2023-04-16T09:17:22.796Z,73.1968
2023-04-16T09:18:24.345Z,73.1756
2023-04-16T09:19:26.052Z,73.2059
2023-04-16T09:20:27.661Z,73.1578
2023-04-16T09:21:29.289Z,73.1425
2023-04-16T09:22:30.898Z,73.1508
2023-04-16T09:23:32.576Z,73.1206
2023-04-16T09:24:34.218Z,73.1242
2023-04-16T09:25:35.836Z,73.1574
2023-04-16T09:26:37.474Z,73.1642
2023-04-16T09:27:39.160Z,73.0772
2023-04-16T09:28:40.756Z,73.0340
2023-04-16T09:29:42.447Z,72.9591
2023-04-16T09:30:44.055Z,72.9117
2023-04-16T09:31:45.742Z,72.9286
2023-04-16T09:32:47.367Z,72.8883
2023-04-16T09:33:48.996Z,72.8800
2023-04-16T09:34:50.696Z,72.8953
2023-04-16T09:35:52.301Z,72.8877
2023-04-16T09:36:53.954Z,72.8993
2023-04-16T09:37:55.584Z,72.9612
2023-04-16T09:38:57.844Z,73.0528
2023-04-16T09:39:58.900Z,73.1392
2023-04-16T09:41:00.503Z,73.1265
2023-04-16T09:42:02.361Z,73.1160
2023-04-16T09:43:03.778Z,73.0871
2023-04-16T09:44:05.523Z,73.0353
2023-04-16T09:45:07.079Z,72.9810
2023-04-16T09:46:08.836Z,72.9832
2023-04-16T09:47:10.348Z,72.9566
2023-04-16T09:48:12.003Z,72.9755
2023-04-16T09:49:13.626Z,72.9541
2023-04-16T09:50:17.722Z,72.9469
2023-04-16T09:51:16.911Z,72.8737
2023-04-16T09:52:18.715Z,72.7875
2023-04-16T09:53:20.207Z,72.7606
2023-04-16T09:54:21.875Z,72.7569
2023-04-16T09:55:23.542Z,72.7601
2023-04-16T09:56:25.132Z,72.7739
2023-04-16T09:57:26.807Z,72.7851
2023-04-16T09:58:28.438Z,72.7946
2023-04-16T09:59:30.199Z,72.8090
2023-04-16T10:00:31.829Z,72.8141
2023-04-16T10:01:33.407Z,72.8308
2023-04-16T10:02:35.077Z,72.8237
2023-04-16T10:03:37.021Z,72.8037
2023-04-16T10:04:38.349Z,72.7816
2023-04-16T10:05:39.986Z,72.8197
2023-04-16T10:06:41.595Z,72.8524
2023-04-16T10:07:43.260Z,72.8721
2023-04-16T10:08:44.892Z,72.9395
2023-04-16T10:09:46.529Z,73.0151
2023-04-16T10:10:48.232Z,72.9908
2023-04-16T10:11:49.810Z,72.9777
2023-04-16T10:12:51.478Z,72.9243
2023-04-16T10:13:53.181Z,72.8895
2023-04-16T10:14:54.822Z,72.9611
2023-04-16T10:15:56.536Z,73.0156
2023-04-16T10:16:58.129Z,73.0785
2023-04-16T10:17:59.846Z,73.1221
2023-04-16T10:19:01.446Z,73.1931
2023-04-16T10:20:03.051Z,73.2908
2023-04-16T10:21:04.728Z,73.2568
2023-04-16T10:22:06.398Z,73.2179
2023-04-16T10:23:07.991Z,73.2441
2023-04-16T10:24:09.638Z,73.2062
2023-04-16T10:25:11.362Z,73.2439
2023-04-16T10:26:12.986Z,73.2725
2023-04-16T10:27:14.558Z,73.3045
2023-04-16T10:28:16.199Z,73.3696
2023-04-16T10:29:17.854Z,73.4012
2023-04-16T10:30:19.497Z,73.4458
2023-04-16T10:31:21.253Z,73.4701
2023-04-16T10:32:22.822Z,73.4895
2023-04-16T10:33:24.417Z,73.4954
2023-04-16T10:34:26.039Z,73.5474
2023-04-16T10:35:27.771Z,73.5965
2023-04-16T10:36:29.389Z,73.6316
2023-04-16T10:37:30.974Z,73.6844
2023-04-16T10:38:32.658Z,73.7530
2023-04-16T10:39:34.253Z,73.7351
2023-04-16T10:40:35.935Z,73.7561
2023-04-16T10:41:37.670Z,73.7952
2023-04-16T10:42:39.180Z,73.8252
2023-04-16T10:43:40.838Z,73.8816
2023-04-16T10:44:45.229Z,73.9735
2023-04-16T10:45:44.120Z,74.0979
2023-04-16T10:46:45.809Z,74.1883
2023-04-16T10:47:47.463Z,74.2492
2023-04-16T10:48:50.652Z,74.2792
2023-04-16T10:49:50.694Z,74.2692
2023-04-16T10:50:52.314Z,74.2133
2023-04-16T10:51:54.011Z,74.1538
2023-04-16T10:52:55.595Z,74.2184
2023-04-16T10:53:57.251Z,74.2383
2023-04-16T10:54:58.918Z,74.2800
2023-04-16T10:56:00.509Z,74.2292
2023-04-16T10:57:03.773Z,74.2010
2023-04-16T10:58:03.881Z,74.1131
2023-04-16T10:59:05.426Z,73.9905
2023-04-16T11:00:07.085Z,73.9214
2023-04-16T11:01:08.709Z,73.8795
2023-04-16T11:02:10.583Z,73.7848
2023-04-16T11:03:12.125Z,73.6759
2023-04-16T11:04:13.713Z,73.5389
2023-04-16T11:05:15.267Z,73.4663
2023-04-16T11:06:16.899Z,73.5035
2023-04-16T11:07:18.576Z,73.3688
2023-04-16T11:08:20.107Z,73.3418
2023-04-16T11:09:21.708Z,73.2755
2023-04-16T11:10:23.387Z,73.1735
2023-04-16T11:11:25.242Z,73.1457
2023-04-16T11:12:26.674Z,73.1714
2023-04-16T11:13:28.292Z,73.1592
2023-04-16T11:14:29.911Z,73.0924
2023-04-16T11:15:31.529Z,73.0172
2023-04-16T11:16:33.356Z,73.0096
2023-04-16T11:17:34.901Z,72.9896
2023-04-16T11:18:36.492Z,72.9441
2023-04-16T11:19:38.122Z,73.0156
2023-04-16T11:20:39.757Z,73.0633
2023-04-16T11:21:41.398Z,73.0648
2023-04-16T11:22:43.048Z,73.0453
2023-04-16T11:23:44.692Z,73.0149
2023-04-16T11:24:46.354Z,73.0459
2023-04-16T11:25:47.990Z,73.0763
2023-04-16T11:26:49.622Z,73.1547
2023-04-16T11:27:51.325Z,73.2106
2023-04-16T11:28:52.915Z,73.2004
2023-04-16T11:29:54.555Z,73.1608
2023-04-16T11:30:56.238Z,73.0851
2023-04-16T11:31:57.836Z,72.9957
2023-04-16T11:32:59.555Z,72.9145
2023-04-16T11:34:01.142Z,72.7952
2023-04-16T11:35:02.794Z,72.6753
2023-04-16T11:36:04.424Z,72.5752
2023-04-16T11:37:06.092Z,72.5435
2023-04-16T11:38:07.805Z,72.4784
2023-04-16T11:39:09.632Z,72.4728
2023-04-16T11:40:10.995Z,72.4007
2023-04-16T11:41:12.630Z,72.3656
2023-04-16T11:42:14.376Z,72.3038
2023-04-16T11:43:15.942Z,72.3667
2023-04-16T11:44:17.704Z,72.4457
2023-04-16T11:45:19.246Z,72.5418
2023-04-16T11:46:27.466Z,72.5451
2023-04-16T11:47:22.586Z,72.4532
2023-04-16T11:48:24.162Z,72.4283
2023-04-16T11:49:25.763Z,72.3251
2023-04-16T11:50:27.431Z,72.2795
2023-04-16T11:51:29.044Z,72.2438
2023-04-16T11:52:30.707Z,72.2304
2023-04-16T11:53:32.378Z,72.2270
2023-04-16T11:54:34.006Z,72.2781
2023-04-16T11:55:35.632Z,72.4037
2023-04-16T11:56:37.293Z,72.5020
2023-04-16T11:57:38.906Z,72.5106
2023-04-16T11:58:42.445Z,72.4868
2023-04-16T12:00:02.610Z,72.4820
2023-04-16T12:00:43.866Z,72.5431
2023-04-16T12:01:45.532Z,72.6290
2023-04-16T12:02:47.280Z,72.6154
2023-04-16T12:03:49.073Z,72.5878
2023-04-16T12:04:50.511Z,72.5479
2023-04-16T12:05:52.158Z,72.5575
2023-04-16T12:06:53.705Z,72.6101
2023-04-16T12:07:55.310Z,72.6067
2023-04-16T12:08:56.994Z,72.7117
2023-04-16T12:09:58.598Z,72.7882
2023-04-16T12:11:00.251Z,72.8903
2023-04-16T12:12:01.874Z,72.9245
2023-04-16T12:13:03.575Z,72.9650
2023-04-16T12:14:05.182Z,72.9936
2023-04-16T12:15:06.778Z,72.9954
2023-04-16T12:16:08.447Z,73.0728
2023-04-16T12:17:10.398Z,73.1558
2023-04-16T12:18:11.791Z,73.1899
2023-04-16T12:19:13.502Z,73.2071
2023-04-16T12:20:14.996Z,73.2251
2023-04-16T12:21:16.659Z,73.2131
2023-04-16T12:22:18.276Z,73.2090
2023-04-16T12:23:20.190Z,73.1702
2023-04-16T12:24:21.625Z,73.1493
2023-04-16T12:25:23.196Z,73.1165